Time;durP1;ratioP1;P1;durP2;ratioP2;P2;SDS_P1;SDS_P2;PMS_P1;PMS_P2;Temp;Humidity;BMP_temperature;BMP_pressure;BME280_temperature;BME280_humidity;BME280_pressure;Samples;Min_cycle;Max_cycle;Signal;HPM_P1;HPM_P2
2021/08/05 00:00:19;;;;;;;;;;;21.20;67.00;;;;;;5029672;28;19909;-72
2021/08/05 00:02:44;;;;;;;;;;;21.20;67.00;;;;;;5029835;28;19913;-73
2021/08/05 00:05:10;;;;;;;;;;;21.20;67.00;;;;;;5029540;28;19920;-72
2021/08/05 00:07:35;;;;;;;;;;;21.20;67.00;;;;;;5029300;28;19921;-71
2021/08/05 00:10:01;;;;;;;;;;;21.20;67.00;;;;;;5029124;28;20352;-73
2021/08/05 00:12:26;;;;;;;;;;;21.20;66.90;;;;;;5029363;28;19910;-72
2021/08/05 00:14:52;;;;;;;;;;;21.20;67.00;;;;;;5029361;28;19913;-72
2021/08/05 00:17:17;;;;;;;;;;;21.20;66.90;;;;;;5027725;28;19932;-72
2021/08/05 00:19:42;;;;;;;;;;;21.10;66.90;;;;;;5029087;28;19916;-72
2021/08/05 00:22:08;;;;;;;;;;;21.20;66.90;;;;;;5028918;28;19913;-72
2021/08/05 00:24:33;;;;;;;;;;;21.20;66.90;;;;;;5028790;28;19979;-72
2021/08/05 00:26:59;;;;;;;;;;;21.10;66.80;;;;;;5029155;28;19909;-72
2021/08/05 00:29:24;;;;;;;;;;;21.10;66.80;;;;;;5028663;28;19917;-72
2021/08/05 00:31:50;;;;;;;;;;;21.20;66.80;;;;;;5028834;28;20000;-72
2021/08/05 00:34:15;;;;;;;;;;;21.10;66.70;;;;;;5027478;28;19921;-72
2021/08/05 00:36:40;;;;;;;;;;;21.20;66.80;;;;;;5028859;28;19924;-72
2021/08/05 00:39:06;;;;;;;;;;;21.10;66.70;;;;;;5028457;28;20538;-71
2021/08/05 00:41:31;;;;;;;;;;;21.20;66.80;;;;;;5028751;28;19913;-72
2021/08/05 00:43:58;;;;;;;;;;;21.20;66.90;;;;;;5028686;28;20097;-71
2021/08/05 00:46:23;;;;;;;;;;;21.20;66.90;;;;;;5027382;28;19913;-71
2021/08/05 00:48:49;;;;;;;;;;;21.10;66.90;;;;;;5029056;28;19938;-71
2021/08/05 00:51:14;;;;;;;;;;;21.10;66.90;;;;;;5028843;28;19956;-72
2021/08/05 00:53:42;;;;;;;;;;;21.10;67.00;;;;;;5028721;28;20291;-72
2021/08/05 00:56:07;;;;;;;;;;;21.10;66.90;;;;;;5028573;28;19916;-71
2021/08/05 00:58:32;;;;;;;;;;;21.20;66.90;;;;;;5028534;28;19932;-72
2021/08/05 01:01:00;;;;;;;;;;;21.10;66.90;;;;;;5028056;28;19959;-72
2021/08/05 01:03:27;;;;;;;;;;;21.10;66.80;;;;;;5026429;28;19917;-72
2021/08/05 01:05:57;;;;;;;;;;;21.20;66.90;;;;;;5028059;28;19913;-72
2021/08/05 01:08:24;;;;;;;;;;;21.10;66.70;;;;;;5026289;28;20011;-72
2021/08/05 01:10:56;;;;;;;;;;;21.20;66.70;;;;;;5028127;28;19917;-72
2021/08/05 01:13:28;;;;;;;;;;;21.10;66.80;;;;;;5027078;28;19920;-72
2021/08/05 01:15:53;;;;;;;;;;;21.10;66.90;;;;;;5026856;28;19920;-70
2021/08/05 01:18:20;;;;;;;;;;;21.10;66.90;;;;;;5026513;28;19913;-73
2021/08/05 01:20:45;;;;;;;;;;;21.10;66.90;;;;;;5026515;28;19960;-72
2021/08/05 01:23:26;;;;;;;;;;;21.10;66.90;;;;;;5026539;28;19964;-71
2021/08/05 01:26:05;;;;;;;;;;;21.10;66.90;;;;;;5026524;28;19917;-72
2021/08/05 01:28:31;;;;;;;;;;;21.10;66.90;;;;;;5027784;28;19916;-72
2021/08/05 01:30:57;;;;;;;;;;;21.10;66.90;;;;;;5009759;28;19921;-73
2021/08/05 01:33:22;;;;;;;;;;;21.10;66.90;;;;;;5026310;28;20281;-71
2021/08/05 01:35:48;;;;;;;;;;;21.10;66.90;;;;;;5026492;28;19948;-72
2021/08/05 01:38:14;;;;;;;;;;;21.10;66.90;;;;;;5026225;28;19909;-73
2021/08/05 01:40:39;;;;;;;;;;;21.10;66.90;;;;;;5027687;28;19913;-73
2021/08/05 01:43:04;;;;;;;;;;;21.10;66.90;;;;;;5026609;28;19971;-72
2021/08/05 01:45:30;;;;;;;;;;;21.10;66.90;;;;;;5026335;28;19915;-71
2021/08/05 01:47:56;;;;;;;;;;;21.10;66.80;;;;;;5026139;28;20045;-72
2021/08/05 01:50:21;;;;;;;;;;;21.10;66.90;;;;;;5026157;28;19917;-73
2021/08/05 01:52:47;;;;;;;;;;;21.10;66.90;;;;;;5027587;28;19915;-72
2021/08/05 01:55:14;;;;;;;;;;;21.10;66.90;;;;;;5027539;28;20367;-72
2021/08/05 01:57:39;;;;;;;;;;;21.10;66.90;;;;;;5027384;28;19945;-72
2021/08/05 02:00:05;;;;;;;;;;;21.10;66.80;;;;;;5027601;28;19909;-72
2021/08/05 02:02:31;;;;;;;;;;;21.10;66.90;;;;;;5026024;28;19917;-71
2021/08/05 02:04:59;;;;;;;;;;;21.10;66.90;;;;;;5027541;28;19919;-72
2021/08/05 02:07:27;;;;;;;;;;;21.10;66.90;;;;;;5027513;28;20017;-72
2021/08/05 02:09:59;;;;;;;;;;;21.10;66.90;;;;;;5025815;28;19987;-72
2021/08/05 02:12:26;;;;;;;;;;;21.10;66.90;;;;;;5009936;28;19913;-71
2021/08/05 02:14:51;;;;;;;;;;;21.10;66.90;;;;;;5032407;28;19963;-72
2021/08/05 02:17:17;;;;;;;;;;;21.10;67.00;;;;;;5032571;28;19917;-72
2021/08/05 02:19:42;;;;;;;;;;;21.10;67.00;;;;;;5032681;28;19913;-73
2021/08/05 02:22:08;;;;;;;;;;;21.10;67.00;;;;;;5034058;28;20287;-72
2021/08/05 02:24:33;;;;;;;;;;;21.10;67.10;;;;;;5032607;28;19909;-72
2021/08/05 02:26:59;;;;;;;;;;;21.10;67.10;;;;;;5034242;28;19909;-72
2021/08/05 02:29:25;;;;;;;;;;;21.10;67.10;;;;;;5033315;28;20647;-73
2021/08/05 02:31:50;;;;;;;;;;;21.10;67.00;;;;;;5032290;28;20019;-72
2021/08/05 02:34:16;;;;;;;;;;;21.10;67.00;;;;;;5033750;28;19936;-72
2021/08/05 02:36:41;;;;;;;;;;;21.10;66.90;;;;;;5032291;28;19909;-73
2021/08/05 02:39:07;;;;;;;;;;;21.10;66.90;;;;;;5033609;28;19919;-73
2021/08/05 02:41:32;;;;;;;;;;;21.10;66.90;;;;;;5033551;28;20004;-72
2021/08/05 02:43:57;;;;;;;;;;;21.10;66.80;;;;;;5033521;28;20066;-71
2021/08/05 02:46:23;;;;;;;;;;;21.10;66.70;;;;;;5032528;28;19913;-72
2021/08/05 02:48:49;;;;;;;;;;;21.10;66.80;;;;;;5032245;28;19913;-71
2021/08/05 02:51:14;;;;;;;;;;;21.10;66.70;;;;;;5031946;28;19920;-72
2021/08/05 02:53:40;;;;;;;;;;;21.10;66.80;;;;;;5033601;28;19909;-72
2021/08/05 02:56:07;;;;;;;;;;;21.10;66.80;;;;;;5033572;28;20375;-72
2021/08/05 02:58:32;;;;;;;;;;;21.10;66.80;;;;;;5032084;28;20375;-71
2021/08/05 03:00:58;;;;;;;;;;;21.10;66.80;;;;;;5033193;28;19913;-72
2021/08/05 03:03:23;;;;;;;;;;;21.00;66.80;;;;;;5033531;28;20299;-73
2021/08/05 03:05:50;;;;;;;;;;;21.00;66.90;;;;;;5033364;28;20042;-72
2021/08/05 03:08:15;;;;;;;;;;;21.00;66.90;;;;;;5033435;28;19920;-72
2021/08/05 03:10:41;;;;;;;;;;;21.10;67.10;;;;;;5033383;28;19913;-71
2021/08/05 03:13:06;;;;;;;;;;;21.00;67.00;;;;;;5033486;28;19920;-71
2021/08/05 03:15:32;;;;;;;;;;;21.00;67.00;;;;;;5033661;28;19909;-72
2021/08/05 03:17:57;;;;;;;;;;;21.10;67.10;;;;;;5033750;28;20552;-72
2021/08/05 03:20:23;;;;;;;;;;;21.00;67.00;;;;;;5034223;28;19913;-71
2021/08/05 03:22:48;;;;;;;;;;;21.00;66.90;;;;;;5034533;28;19966;-72
2021/08/05 03:25:13;;;;;;;;;;;21.00;66.90;;;;;;5031369;28;20540;-71
2021/08/05 03:27:39;;;;;;;;;;;21.00;66.80;;;;;;5031893;28;19917;-70
2021/08/05 03:30:05;;;;;;;;;;;21.00;66.80;;;;;;5030156;28;20007;-72
2021/08/05 03:32:30;;;;;;;;;;;21.00;67.10;;;;;;5030399;28;19921;-72
2021/08/05 03:34:56;;;;;;;;;;;21.00;66.80;;;;;;5030726;28;19939;-70
2021/08/05 03:37:21;;;;;;;;;;;21.00;66.70;;;;;;5030398;28;19909;-71
2021/08/05 03:39:47;;;;;;;;;;;21.00;66.70;;;;;;5028486;28;19917;-73
2021/08/05 03:42:12;;;;;;;;;;;21.00;66.80;;;;;;5028488;28;20344;-65
2021/08/05 03:44:38;;;;;;;;;;;21.10;66.90;;;;;;5029334;28;19917;-71
2021/08/05 03:47:03;;;;;;;;;;;21.00;66.80;;;;;;5029809;28;19920;-72
2021/08/05 03:49:29;;;;;;;;;;;21.00;66.80;;;;;;5029606;28;19914;-71
2021/08/05 03:51:54;;;;;;;;;;;21.00;66.80;;;;;;5029055;28;19921;-65
2021/08/05 03:54:19;;;;;;;;;;;21.00;66.70;;;;;;5029490;28;19916;-72
2021/08/05 03:56:45;;;;;;;;;;;21.00;66.80;;;;;;5029391;28;19909;-71
2021/08/05 03:59:10;;;;;;;;;;;21.00;66.90;;;;;;5029221;28;20379;-71
2021/08/05 04:01:36;;;;;;;;;;;21.00;66.90;;;;;;5029123;28;19920;-72
2021/08/05 04:04:01;;;;;;;;;;;21.00;66.90;;;;;;5029484;28;19916;-71
2021/08/05 04:06:27;;;;;;;;;;;21.00;66.90;;;;;;5029283;28;20383;-67
2021/08/05 04:08:52;;;;;;;;;;;21.00;66.90;;;;;;5027843;28;19940;-70
2021/08/05 04:11:17;;;;;;;;;;;21.00;66.90;;;;;;5029124;28;19921;-73
2021/08/05 04:13:43;;;;;;;;;;;21.00;66.90;;;;;;5029274;28;19948;-71
2021/08/05 04:16:08;;;;;;;;;;;21.00;66.80;;;;;;5029020;28;20411;-70
2021/08/05 04:18:34;;;;;;;;;;;21.00;66.80;;;;;;5028935;28;19913;-71
2021/08/05 04:20:59;;;;;;;;;;;21.00;66.70;;;;;;5028999;28;20137;-70
2021/08/05 04:23:25;;;;;;;;;;;21.00;66.90;;;;;;5029037;28;20346;-65
2021/08/05 04:25:50;;;;;;;;;;;21.00;66.90;;;;;;5028954;28;19910;-71
2021/08/05 04:28:16;;;;;;;;;;;21.00;66.70;;;;;;5028715;28;19913;-71
2021/08/05 04:30:41;;;;;;;;;;;21.00;66.80;;;;;;5027199;28;20150;-71
2021/08/05 04:33:06;;;;;;;;;;;21.00;66.80;;;;;;5028840;28;19935;-71
2021/08/05 04:35:32;;;;;;;;;;;21.00;66.70;;;;;;5028482;28;19923;-71
2021/08/05 04:37:58;;;;;;;;;;;20.90;66.80;;;;;;5028561;28;20251;-71
2021/08/05 04:40:24;;;;;;;;;;;20.90;67.00;;;;;;5028350;28;20364;-71
2021/08/05 04:42:49;;;;;;;;;;;21.00;66.90;;;;;;5028556;28;19921;-71
2021/08/05 04:45:15;;;;;;;;;;;20.90;66.80;;;;;;5026922;28;19916;-65
2021/08/05 04:47:52;;;;;;;;;;;20.90;66.80;;;;;;5028489;28;19931;-71
2021/08/05 04:50:18;;;;;;;;;;;20.90;66.80;;;;;;5028293;28;19913;-72
2021/08/05 04:52:43;;;;;;;;;;;20.90;67.10;;;;;;5028448;28;20334;-71
2021/08/05 04:55:08;;;;;;;;;;;20.90;67.00;;;;;;5028616;28;19913;-71
2021/08/05 04:57:34;;;;;;;;;;;20.90;67.00;;;;;;5028517;28;19913;-71
2021/08/05 04:59:59;;;;;;;;;;;20.90;67.10;;;;;;5026599;28;20417;-71
2021/08/05 05:02:25;;;;;;;;;;;20.90;67.00;;;;;;5028059;28;19920;-71
2021/08/05 05:04:50;;;;;;;;;;;20.90;67.00;;;;;;5028062;28;19913;-71
2021/08/05 05:07:16;;;;;;;;;;;20.90;67.00;;;;;;5028401;28;19924;-71
2021/08/05 05:09:41;;;;;;;;;;;20.90;67.00;;;;;;5027872;28;20411;-71
2021/08/05 05:12:07;;;;;;;;;;;20.90;67.00;;;;;;5027869;28;19955;-71
2021/08/05 05:14:32;;;;;;;;;;;20.90;67.00;;;;;;5027916;28;19913;-71
2021/08/05 05:16:58;;;;;;;;;;;20.90;67.10;;;;;;5027869;28;20356;-70
2021/08/05 05:19:23;;;;;;;;;;;20.90;67.00;;;;;;5027612;28;19960;-72
2021/08/05 05:21:49;;;;;;;;;;;20.90;66.80;;;;;;5027805;28;19960;-71
2021/08/05 05:24:14;;;;;;;;;;;21.00;66.90;;;;;;5026664;28;19909;-71
2021/08/05 05:26:40;;;;;;;;;;;20.90;66.90;;;;;;5027800;28;19963;-71
2021/08/05 05:29:05;;;;;;;;;;;21.00;67.00;;;;;;5027919;28;19913;-64
2021/08/05 05:31:31;;;;;;;;;;;21.00;67.00;;;;;;5027586;28;19921;-71
2021/08/05 05:33:56;;;;;;;;;;;20.90;67.00;;;;;;5027764;28;19913;-71
2021/08/05 05:36:22;;;;;;;;;;;20.90;67.00;;;;;;5027708;28;19916;-66
2021/08/05 05:38:47;;;;;;;;;;;20.90;67.00;;;;;;5026125;28;19915;-70
2021/08/05 05:41:12;;;;;;;;;;;20.90;67.10;;;;;;5027549;28;20392;-72
2021/08/05 05:43:38;;;;;;;;;;;20.90;67.00;;;;;;5027545;28;19913;-71
2021/08/05 05:46:04;;;;;;;;;;;20.90;67.00;;;;;;5027720;28;20342;-71
2021/08/05 05:48:29;;;;;;;;;;;20.90;67.10;;;;;;5026955;28;20291;-71
2021/08/05 05:50:55;;;;;;;;;;;20.90;67.10;;;;;;5027357;28;19913;-71
2021/08/05 05:53:23;;;;;;;;;;;20.90;67.10;;;;;;5027353;28;19996;-71
2021/08/05 05:55:48;;;;;;;;;;;20.90;67.20;;;;;;5027483;28;19913;-71
2021/08/05 05:58:14;;;;;;;;;;;20.90;67.10;;;;;;5027164;28;19916;-70
2021/08/05 06:00:39;;;;;;;;;;;20.90;67.10;;;;;;5027327;28;20239;-71
2021/08/05 06:03:05;;;;;;;;;;;20.90;67.10;;;;;;5027363;28;20498;-71
2021/08/05 06:05:31;;;;;;;;;;;20.90;67.10;;;;;;5027199;28;19913;-64
2021/08/05 06:07:56;;;;;;;;;;;20.90;67.10;;;;;;5027177;28;19933;-71
2021/08/05 06:10:22;;;;;;;;;;;20.90;67.20;;;;;;5027561;28;20255;-71
2021/08/05 06:12:47;;;;;;;;;;;20.90;67.30;;;;;;5027154;28;19971;-71
2021/08/05 06:15:13;;;;;;;;;;;20.90;67.20;;;;;;5027384;28;19909;-71
2021/08/05 06:17:41;;;;;;;;;;;20.90;67.20;;;;;;5027425;28;20283;-70
2021/08/05 06:20:06;;;;;;;;;;;20.90;67.10;;;;;;5027726;28;19919;-65
2021/08/05 06:22:32;;;;;;;;;;;20.90;67.10;;;;;;5027164;28;19909;-71
2021/08/05 06:24:57;;;;;;;;;;;20.90;67.10;;;;;;5026958;28;19913;-71
2021/08/05 06:27:24;;;;;;;;;;;20.90;67.10;;;;;;5025537;28;19949;-64
2021/08/05 06:29:49;;;;;;;;;;;20.90;67.10;;;;;;5026643;28;19948;-65
2021/08/05 06:32:15;;;;;;;;;;;20.90;67.20;;;;;;5026887;28;19921;-71
2021/08/05 06:34:40;;;;;;;;;;;20.90;67.20;;;;;;5027056;28;20278;-71
2021/08/05 06:37:06;;;;;;;;;;;20.90;67.20;;;;;;5026894;28;19913;-71
2021/08/05 06:39:31;;;;;;;;;;;20.90;67.30;;;;;;5026900;28;19960;-71
2021/08/05 06:41:57;;;;;;;;;;;20.90;67.30;;;;;;5026579;28;19913;-71
2021/08/05 06:44:22;;;;;;;;;;;20.90;67.30;;;;;;5026963;28;20426;-65
2021/08/05 06:46:47;;;;;;;;;;;20.90;67.30;;;;;;5026658;28;19917;-72
2021/08/05 06:49:13;;;;;;;;;;;20.90;67.30;;;;;;5026568;28;19957;-64
2021/08/05 06:51:38;;;;;;;;;;;20.80;67.30;;;;;;5025295;28;19921;-71
2021/08/05 06:54:04;;;;;;;;;;;20.90;67.40;;;;;;5026801;28;19913;-71
2021/08/05 06:56:29;;;;;;;;;;;20.90;67.40;;;;;;5026965;28;19913;-71
2021/08/05 06:58:55;;;;;;;;;;;20.80;67.40;;;;;;5025210;28;20415;-71
2021/08/05 07:01:20;;;;;;;;;;;20.80;67.40;;;;;;5029552;28;19917;-71
2021/08/05 07:03:46;;;;;;;;;;;20.80;67.50;;;;;;5030813;28;20340;-70
2021/08/05 07:06:11;;;;;;;;;;;20.80;67.50;;;;;;5030258;28;19909;-64
2021/08/05 07:08:36;;;;;;;;;;;20.80;67.50;;;;;;5030208;28;19967;-71
2021/08/05 07:11:02;;;;;;;;;;;20.90;67.50;;;;;;5030058;28;19920;-71
2021/08/05 07:13:27;;;;;;;;;;;20.80;67.50;;;;;;5029187;28;20388;-71
2021/08/05 07:15:53;;;;;;;;;;;20.90;67.50;;;;;;5030610;28;19924;-71
2021/08/05 07:18:18;;;;;;;;;;;20.80;67.50;;;;;;5030204;28;20460;-71
2021/08/05 07:20:44;;;;;;;;;;;20.80;67.40;;;;;;5030221;28;19948;-71
2021/08/05 07:23:09;;;;;;;;;;;20.80;67.40;;;;;;5030700;28;20177;-65
2021/08/05 07:25:35;;;;;;;;;;;20.80;67.40;;;;;;5028667;28;19960;-71
2021/08/05 07:28:01;;;;;;;;;;;20.80;67.40;;;;;;5029886;28;19910;-71
2021/08/05 07:30:27;;;;;;;;;;;20.80;67.40;;;;;;5029627;28;19936;-71
2021/08/05 07:32:53;;;;;;;;;;;20.80;67.40;;;;;;5029992;28;19917;-65
2021/08/05 07:35:18;;;;;;;;;;;20.80;67.40;;;;;;5029871;28;19917;-71
2021/08/05 07:37:44;;;;;;;;;;;20.80;67.40;;;;;;5029782;28;19941;-71
2021/08/05 07:40:10;;;;;;;;;;;20.90;67.40;;;;;;5029550;28;19909;-70
2021/08/05 07:42:35;;;;;;;;;;;20.80;67.30;;;;;;5028434;28;20040;-65
2021/08/05 07:45:01;;;;;;;;;;;20.80;67.40;;;;;;5028301;28;19916;-71
2021/08/05 07:47:27;;;;;;;;;;;20.80;67.40;;;;;;5029828;28;20294;-71
2021/08/05 07:49:53;;;;;;;;;;;20.80;67.30;;;;;;5029323;28;19917;-71
2021/08/05 07:52:18;;;;;;;;;;;20.80;67.40;;;;;;5029567;28;19924;-72
2021/08/05 07:54:44;;;;;;;;;;;20.80;67.40;;;;;;5028180;28;19913;-71
2021/08/05 07:57:09;;;;;;;;;;;20.80;67.50;;;;;;5027760;28;19913;-72
2021/08/05 07:59:35;;;;;;;;;;;20.80;67.40;;;;;;5027441;28;19917;-71
2021/08/05 08:02:00;;;;;;;;;;;20.90;67.50;;;;;;5027246;28;19920;-65
2021/08/05 08:04:25;;;;;;;;;;;20.80;67.50;;;;;;5027205;28;19945;-71
2021/08/05 08:06:51;;;;;;;;;;;20.80;67.50;;;;;;5027196;28;19965;-71
2021/08/05 08:09:16;;;;;;;;;;;20.80;67.50;;;;;;5025289;28;19966;-65
2021/08/05 08:11:42;;;;;;;;;;;20.90;67.40;;;;;;5026796;28;19928;-72
2021/08/05 08:14:07;;;;;;;;;;;20.80;67.40;;;;;;5027886;28;20388;-71
2021/08/05 08:16:35;;;;;;;;;;;20.80;67.50;;;;;;5027346;28;19976;-66
2021/08/05 08:19:00;;;;;;;;;;;20.80;67.40;;;;;;5027344;28;19917;-70
2021/08/05 08:21:26;;;;;;;;;;;20.80;67.40;;;;;;5027813;28;19923;-70
2021/08/05 08:23:51;;;;;;;;;;;20.90;67.50;;;;;;5027391;28;20383;-71
2021/08/05 08:26:16;;;;;;;;;;;20.80;67.50;;;;;;5027489;28;19921;-65
2021/08/05 08:28:42;;;;;;;;;;;20.80;67.50;;;;;;5027176;28;19924;-72
2021/08/05 08:31:07;;;;;;;;;;;20.80;67.50;;;;;;5026852;28;19932;-71
2021/08/05 08:33:33;;;;;;;;;;;20.80;67.50;;;;;;5026711;28;20317;-71
2021/08/05 08:35:58;;;;;;;;;;;20.80;67.50;;;;;;5026799;28;19991;-72
2021/08/05 08:38:24;;;;;;;;;;;20.80;67.50;;;;;;5026325;28;19971;-71
2021/08/05 08:40:56;;;;;;;;;;;20.80;67.60;;;;;;5008661;28;19924;-71
2021/08/05 08:43:22;;;;;;;;;;;20.80;67.50;;;;;;5026690;28;19922;-71
2021/08/05 08:45:48;;;;;;;;;;;20.80;67.60;;;;;;5026011;28;20380;-73
2021/08/05 08:48:13;;;;;;;;;;;20.80;67.60;;;;;;5025080;28;20119;-65
2021/08/05 08:50:39;;;;;;;;;;;20.80;67.60;;;;;;5026985;28;20003;-71
2021/08/05 08:53:05;;;;;;;;;;;20.80;67.70;;;;;;5025028;28;20372;-70
2021/08/05 08:55:31;;;;;;;;;;;20.80;67.80;;;;;;5026454;28;19921;-70
2021/08/05 08:57:57;;;;;;;;;;;20.80;67.80;;;;;;5024866;28;19920;-71
2021/08/05 09:00:23;;;;;;;;;;;20.80;67.70;;;;;;5025557;28;19917;-66
2021/08/05 09:02:48;;;;;;;;;;;20.80;67.60;;;;;;5026747;28;19966;-65
2021/08/05 09:05:14;;;;;;;;;;;20.80;67.60;;;;;;5024688;28;19975;-71
2021/08/05 09:07:39;;;;;;;;;;;20.80;67.60;;;;;;5026156;28;20537;-71
2021/08/05 09:10:05;;;;;;;;;;;20.80;67.50;;;;;;5024455;28;20006;-71
2021/08/05 09:12:30;;;;;;;;;;;20.80;67.70;;;;;;5025807;28;20383;-71
2021/08/05 09:14:56;;;;;;;;;;;20.80;67.80;;;;;;5024993;28;19983;-71
2021/08/05 09:17:23;;;;;;;;;;;20.80;67.80;;;;;;5024719;28;19923;-64
2021/08/05 09:19:50;;;;;;;;;;;20.80;67.90;;;;;;5024576;28;19917;-72
2021/08/05 09:22:29;;;;;;;;;;;20.80;67.90;;;;;;5024002;28;19932;-71
2021/08/05 09:24:56;;;;;;;;;;;20.80;67.90;;;;;;5025958;28;20304;-64
2021/08/05 09:27:33;;;;;;;;;;;20.80;67.80;;;;;;5024307;28;20439;-72
2021/08/05 09:29:59;;;;;;;;;;;20.80;67.90;;;;;;5024238;28;20391;-72
2021/08/05 09:32:25;;;;;;;;;;;20.80;67.90;;;;;;5023830;28;19932;-71
2021/08/05 09:34:51;;;;;;;;;;;20.80;67.90;;;;;;5025776;28;20387;-72
2021/08/05 09:37:16;;;;;;;;;;;20.80;67.90;;;;;;5024016;28;19917;-71
2021/08/05 09:39:42;;;;;;;;;;;20.80;67.80;;;;;;5025553;28;19913;-72
2021/08/05 09:42:08;;;;;;;;;;;20.70;67.80;;;;;;5025251;28;19917;-72
2021/08/05 09:44:34;;;;;;;;;;;20.80;67.80;;;;;;5025374;28;20363;-72
2021/08/05 09:47:00;;;;;;;;;;;20.80;67.70;;;;;;5025187;28;19917;-72
2021/08/05 09:49:26;;;;;;;;;;;20.80;67.80;;;;;;5024808;28;19956;-71
2021/08/05 09:51:55;;;;;;;;;;;20.80;67.80;;;;;;5025087;28;19932;-65
2021/08/05 09:54:21;;;;;;;;;;;20.80;67.80;;;;;;5023771;28;19920;-65
2021/08/05 09:56:52;;;;;;;;;;;20.80;67.70;;;;;;5023767;28;19913;-72
2021/08/05 09:59:17;;;;;;;;;;;20.80;67.70;;;;;;5025133;28;19913;-68
2021/08/05 10:01:58;;;;;;;;;;;20.80;67.70;;;;;;5025027;28;19917;-72
2021/08/05 10:04:30;;;;;;;;;;;20.80;67.70;;;;;;5025193;28;20178;-71
2021/08/05 10:06:59;;;;;;;;;;;20.80;67.80;;;;;;5024738;28;19920;-72
2021/08/05 10:09:25;;;;;;;;;;;20.80;67.80;;;;;;5025011;28;19921;-71
2021/08/05 10:11:50;;;;;;;;;;;20.80;67.90;;;;;;5024932;28;20304;-71
2021/08/05 10:14:22;;;;;;;;;;;20.80;67.80;;;;;;5023463;28;20433;-71
2021/08/05 10:16:49;;;;;;;;;;;20.80;67.90;;;;;;5024788;28;19913;-73
2021/08/05 10:19:14;;;;;;;;;;;20.80;67.90;;;;;;5024878;28;19921;-72
2021/08/05 10:21:39;;;;;;;;;;;20.80;68.00;;;;;;5024090;28;20342;-72
2021/08/05 10:24:05;;;;;;;;;;;20.80;68.00;;;;;;5025308;28;19917;-66
2021/08/05 10:26:30;;;;;;;;;;;20.70;67.90;;;;;;5025098;28;19917;-65
2021/08/05 10:28:56;;;;;;;;;;;20.80;67.90;;;;;;5024603;28;19940;-72
2021/08/05 10:31:21;;;;;;;;;;;20.80;68.00;;;;;;5022881;28;19963;-71
2021/08/05 10:33:47;;;;;;;;;;;20.80;67.90;;;;;;5025295;28;19964;-72
2021/08/05 10:36:12;;;;;;;;;;;20.80;67.90;;;;;;5029259;28;20220;-71
2021/08/05 10:38:37;;;;;;;;;;;20.80;67.80;;;;;;5026700;28;20615;-73
2021/08/05 10:41:03;;;;;;;;;;;20.80;67.90;;;;;;5028548;28;19990;-72
2021/08/05 10:43:29;;;;;;;;;;;20.80;67.80;;;;;;5027183;28;20279;-71
2021/08/05 10:45:54;;;;;;;;;;;20.80;67.90;;;;;;5027244;28;20331;-67
2021/08/05 10:48:20;;;;;;;;;;;20.80;67.90;;;;;;5028666;28;19924;-72
2021/08/05 10:50:46;;;;;;;;;;;20.80;67.90;;;;;;5026991;28;20365;-72
2021/08/05 10:53:37;;;;;;;;;;;20.70;67.90;;;;;;5028948;28;19914;-71
2021/08/05 10:56:21;;;;;;;;;;;20.80;68.00;;;;;;5028198;28;19925;-70
2021/08/05 10:59:02;;;;;;;;;;;20.80;68.00;;;;;;5028573;28;20371;-71
2021/08/05 11:01:44;;;;;;;;;;;20.70;68.00;;;;;;5028621;28;20344;-71
2021/08/05 11:04:11;;;;;;;;;;;20.80;68.00;;;;;;5028200;28;19932;-71
2021/08/05 11:06:37;;;;;;;;;;;20.80;68.10;;;;;;5026715;28;19913;-71
2021/08/05 11:09:21;;;;;;;;;;;20.80;68.20;;;;;;5027701;28;19921;-72
2021/08/05 11:11:46;;;;;;;;;;;20.80;68.30;;;;;;5027977;28;20402;-68
2021/08/05 11:14:20;;;;;;;;;;;20.80;68.40;;;;;;5028767;28;19920;-72
2021/08/05 11:16:59;;;;;;;;;;;20.80;68.40;;;;;;5027745;28;19913;-72
2021/08/05 11:19:25;;;;;;;;;;;20.80;68.50;;;;;;5028290;28;19913;-65
2021/08/05 11:21:51;;;;;;;;;;;20.80;68.60;;;;;;5028405;28;19946;-72
2021/08/05 11:24:34;;;;;;;;;;;20.80;68.60;;;;;;5026637;28;20023;-65
2021/08/05 11:27:13;;;;;;;;;;;20.80;68.60;;;;;;5028006;28;19918;-72
2021/08/05 11:29:38;;;;;;;;;;;20.80;68.70;;;;;;5028177;28;19940;-72
2021/08/05 11:32:22;;;;;;;;;;;20.80;68.70;;;;;;5022887;28;19925;-71
2021/08/05 11:34:57;;;;;;;;;;;20.80;68.90;;;;;;5025584;28;19972;-72
2021/08/05 11:37:22;;;;;;;;;;;20.80;69.00;;;;;;5025477;28;19917;-72
2021/08/05 11:39:51;;;;;;;;;;;20.80;69.00;;;;;;5025435;28;19983;-72
2021/08/05 11:42:17;;;;;;;;;;;20.80;69.00;;;;;;5024117;28;19917;-72
2021/08/05 11:44:45;;;;;;;;;;;20.80;69.00;;;;;;5025680;28;19944;-72
2021/08/05 11:47:13;;;;;;;;;;;20.80;69.10;;;;;;5025567;28;19914;-72
2021/08/05 11:49:45;;;;;;;;;;;20.80;69.10;;;;;;5025152;28;20295;-72
2021/08/05 11:52:20;;;;;;;;;;;20.80;69.80;;;;;;5039450;22;19933;-59
2021/08/05 11:54:47;;;;;;;;;;;20.80;69.30;;;;;;5001299;28;19918;-60
2021/08/05 11:57:13;;;;;;;;;;;20.80;69.30;;;;;;5003300;28;20099;-60
2021/08/05 11:59:39;;;;;;;;;;;20.80;69.40;;;;;;5018099;28;20574;-58
2021/08/05 12:02:05;;;;;;;;;;;20.80;69.40;;;;;;5022720;28;19963;-60
2021/08/05 12:04:31;;;;;;;;;;;20.80;69.40;;;;;;5023497;28;20448;-60
2021/08/05 12:07:15;;;;;;;;;;;20.80;69.40;;;;;;5023127;28;19921;-60
2021/08/05 12:09:40;;;;;;;;;;;20.80;69.40;;;;;;5022356;28;19917;-60
2021/08/05 12:12:06;;;;;;;;;;;20.80;69.40;;;;;;5025453;28;19919;-58
2021/08/05 12:14:31;;;;;;;;;;;20.80;69.50;;;;;;5022980;28;20444;-60
2021/08/05 12:16:57;;;;;;;;;;;20.80;69.50;;;;;;5023703;28;20093;-60
2021/08/05 12:19:22;;;;;;;;;;;20.80;69.50;;;;;;5022434;28;20366;-60
2021/08/05 12:21:48;;;;;;;;;;;20.80;69.50;;;;;;5023303;28;19917;-60
2021/08/05 12:24:13;;;;;;;;;;;20.80;69.50;;;;;;5024728;28;19976;-61
2021/08/05 12:26:38;;;;;;;;;;;20.80;69.60;;;;;;5021579;28;20535;-60
2021/08/05 12:29:07;;;;;;;;;;;20.80;69.50;;;;;;5023226;28;19917;-60
2021/08/05 12:31:33;;;;;;;;;;;20.80;69.50;;;;;;5023314;28;19924;-62
2021/08/05 12:33:58;;;;;;;;;;;20.80;69.50;;;;;;5023048;28;19913;-61
2021/08/05 12:36:24;;;;;;;;;;;20.80;69.50;;;;;;5022839;28;19917;-60
2021/08/05 12:39:06;;;;;;;;;;;20.80;68.10;;;;;;5021058;28;19917;-61
2021/08/05 12:41:31;;;;;;;;;;;20.80;68.50;;;;;;5022216;28;19924;-61
2021/08/05 12:43:58;;;;;;;;;;;20.80;68.40;;;;;;5023462;28;19913;-57
2021/08/05 12:46:24;;;;;;;;;;;20.80;68.00;;;;;;5022407;28;19921;-60
2021/08/05 12:48:51;;;;;;;;;;;20.80;68.50;;;;;;5023133;28;19967;-61
2021/08/05 12:51:17;;;;;;;;;;;20.80;68.70;;;;;;5021811;28;19924;-60
2021/08/05 12:53:42;;;;;;;;;;;20.80;68.70;;;;;;5020976;28;20015;-60
2021/08/05 12:56:08;;;;;;;;;;;20.80;68.80;;;;;;5023574;28;20239;-61
2021/08/05 12:58:33;;;;;;;;;;;20.80;68.70;;;;;;5022743;28;19927;-60
2021/08/05 13:01:15;;;;;;;;;;;20.80;68.80;;;;;;5022187;28;19913;-60
2021/08/05 13:03:41;;;;;;;;;;;20.80;68.80;;;;;;5022553;28;19913;-60
2021/08/05 13:06:07;;;;;;;;;;;20.80;68.80;;;;;;5022859;28;19917;-60
2021/08/05 13:08:33;;;;;;;;;;;20.80;68.90;;;;;;5020690;28;20404;-60
2021/08/05 13:10:59;;;;;;;;;;;20.80;68.90;;;;;;5023060;28;19921;-61
2021/08/05 13:13:44;;;;;;;;;;;20.80;68.90;;;;;;5022628;28;20294;-61
2021/08/05 13:16:22;;;;;;;;;;;20.80;69.00;;;;;;5023467;28;19936;-61
2021/08/05 13:19:07;;;;;;;;;;;20.80;69.00;;;;;;5012312;28;19956;-61
2021/08/05 13:21:32;;;;;;;;;;;20.80;69.10;;;;;;5022353;28;19960;-60
2021/08/05 13:24:14;;;;;;;;;;;20.80;69.10;;;;;;5023192;28;19949;-61
2021/08/05 13:26:43;;;;;;;;;;;20.80;69.10;;;;;;5020927;28;19913;-60
2021/08/05 13:29:08;;;;;;;;;;;20.80;69.10;;;;;;5021802;28;19913;-61
2021/08/05 13:31:33;;;;;;;;;;;20.80;69.00;;;;;;5022490;28;19924;-60
2021/08/05 13:34:09;;;;;;;;;;;20.80;69.00;;;;;;5022241;28;19924;-61
2021/08/05 13:36:37;;;;;;;;;;;20.80;68.90;;;;;;5022196;28;20012;-61
2021/08/05 13:39:03;;;;;;;;;;;20.80;68.90;;;;;;5020711;28;19932;-61
2021/08/05 13:41:28;;;;;;;;;;;20.80;68.90;;;;;;5021866;28;19913;-61
2021/08/05 13:43:54;;;;;;;;;;;20.80;68.90;;;;;;5021490;28;19921;-61
2021/08/05 13:46:19;;;;;;;;;;;20.80;69.30;;;;;;5021058;28;20382;-61
2021/08/05 13:48:45;;;;;;;;;;;20.80;69.00;;;;;;5021455;28;19975;-63
2021/08/05 13:51:11;;;;;;;;;;;20.80;69.00;;;;;;5021276;28;19928;-60
2021/08/05 13:53:36;;;;;;;;;;;20.80;69.00;;;;;;5022021;28;19921;-60
2021/08/05 13:56:03;;;;;;;;;;;20.80;69.00;;;;;;5022281;28;19917;-60
2021/08/05 13:58:29;;;;;;;;;;;20.80;69.10;;;;;;5021735;28;19916;-61
2021/08/05 14:00:54;;;;;;;;;;;20.80;69.10;;;;;;5022088;28;19917;-60
2021/08/05 14:03:19;;;;;;;;;;;20.80;69.10;;;;;;5021959;28;19917;-61
2021/08/05 14:05:45;;;;;;;;;;;20.80;69.20;;;;;;5019564;28;19920;-62
2021/08/05 14:08:10;;;;;;;;;;;20.80;69.20;;;;;;5021872;28;20481;-59
2021/08/05 14:10:36;;;;;;;;;;;20.80;69.20;;;;;;5021750;28;19918;-60
2021/08/05 14:13:01;;;;;;;;;;;20.80;69.20;;;;;;5021952;28;20008;-59